createdAt,value
2023-05-11T00:00:25.000Z,95.98
2023-05-11T00:02:53.078Z,96.60
2023-05-11T00:05:21.178Z,95.47
2023-05-11T00:07:50.271Z,94.89
2023-05-11T00:10:18.546Z,95.85
2023-05-11T00:12:46.652Z,96.50
2023-05-11T00:15:16.025Z,100.00
2023-05-11T00:17:44.216Z,100.00
2023-05-11T00:20:12.669Z,99.18
2023-05-11T00:22:41.515Z,99.13
2023-05-11T00:25:11.280Z,97.09
2023-05-11T00:27:39.444Z,98.35
2023-05-11T00:30:08.953Z,98.34
2023-05-11T00:32:38.271Z,98.50
2023-05-11T00:35:07.040Z,98.66
2023-05-11T00:37:34.983Z,99.17
2023-05-11T00:40:03.084Z,99.49
2023-05-11T00:42:30.994Z,99.41
2023-05-11T00:44:59.659Z,99.75
2023-05-11T00:47:27.794Z,99.00
2023-05-11T00:49:57.192Z,99.04
2023-05-11T00:52:25.816Z,99.15
2023-05-11T00:54:53.745Z,99.70
2023-05-11T00:57:22.367Z,98.96
2023-05-11T00:59:51.156Z,100.00
2023-05-11T01:02:19.510Z,100.00
2023-05-11T01:04:47.522Z,100.00
2023-05-11T01:07:22.914Z,98.83
2023-05-11T01:10:01.608Z,97.76
2023-05-11T01:12:36.474Z,97.93
2023-05-11T01:15:10.215Z,98.25
2023-05-11T01:17:47.331Z,98.60
2023-05-11T01:20:19.753Z,99.28
2023-05-11T01:23:03.607Z,100.00
2023-05-11T01:25:52.827Z,100.00
2023-05-11T01:28:47.776Z,100.00
2023-05-11T01:31:17.061Z,100.00
2023-05-11T01:33:49.720Z,100.00
2023-05-11T01:36:20.309Z,100.00
2023-05-11T01:38:51.140Z,100.00
2023-05-11T01:41:22.066Z,100.00
2023-05-11T01:43:55.928Z,99.62
2023-05-11T01:46:28.008Z,99.66
2023-05-11T01:48:59.505Z,100.00
2023-05-11T01:51:31.665Z,100.00
2023-05-11T01:54:01.767Z,100.00
2023-05-11T01:56:30.546Z,100.00
2023-05-11T01:58:59.337Z,100.00
2023-05-11T02:01:30.193Z,99.68
2023-05-11T02:04:00.655Z,98.90
2023-05-11T02:06:32.643Z,99.07
2023-05-11T02:09:02.462Z,98.55
2023-05-11T02:11:32.167Z,98.43
2023-05-11T02:14:01.952Z,98.34
2023-05-11T02:16:33.343Z,99.35
2023-05-11T02:19:01.750Z,100.00
2023-05-11T02:21:33.028Z,100.00
2023-05-11T02:24:03.347Z,100.00
2023-05-11T02:26:31.257Z,100.00
2023-05-11T02:28:59.196Z,100.00
2023-05-11T02:31:30.220Z,100.00
2023-05-11T02:34:07.365Z,100.00
2023-05-11T02:36:40.091Z,100.00
2023-05-11T02:39:12.641Z,99.57
2023-05-11T02:41:44.592Z,99.38
2023-05-11T02:44:16.974Z,99.08
2023-05-11T02:46:48.606Z,98.78
2023-05-11T02:49:22.301Z,98.81
2023-05-11T02:51:51.769Z,99.67
2023-05-11T02:54:20.750Z,98.78
2023-05-11T02:56:49.265Z,98.99
2023-05-11T02:59:17.596Z,98.56
2023-05-11T03:13:51.272Z,93.57
2023-05-11T03:16:21.507Z,93.51
2023-05-11T03:18:50.485Z,93.98
2023-05-11T03:21:21.458Z,94.34
2023-05-11T03:23:50.615Z,95.12
2023-05-11T03:26:20.148Z,95.23
2023-05-11T03:28:48.975Z,96.13
2023-05-11T03:31:19.892Z,96.45
2023-05-11T03:33:47.862Z,97.34
2023-05-11T03:36:16.933Z,97.03
2023-05-11T03:38:47.689Z,97.60
2023-05-11T03:41:18.419Z,98.91
2023-05-11T03:43:50.345Z,99.01
2023-05-11T03:46:23.718Z,99.68
2023-05-11T03:48:52.428Z,100.00
2023-05-11T03:51:20.999Z,100.00
2023-05-11T03:53:49.047Z,100.00
2023-05-11T03:56:16.997Z,100.00
2023-05-11T03:58:45.848Z,100.00
2023-05-11T04:01:14.381Z,100.00
2023-05-11T04:03:50.696Z,100.00
2023-05-11T04:06:19.619Z,100.00
2023-05-11T04:08:47.657Z,100.00
2023-05-11T04:11:15.716Z,100.00
2023-05-11T04:13:43.698Z,100.00
2023-05-11T04:16:11.663Z,100.00
2023-05-11T04:18:39.628Z,100.00
2023-05-11T04:21:08.964Z,100.00
2023-05-11T04:23:37.158Z,100.00
2023-05-11T04:26:05.251Z,100.00
2023-05-11T04:28:33.175Z,100.00
2023-05-11T04:31:01.108Z,100.00
2023-05-11T04:33:29.040Z,100.00
2023-05-11T04:35:58.827Z,100.00
2023-05-11T04:38:28.449Z,100.00
2023-05-11T04:40:56.409Z,100.00
2023-05-11T04:43:24.308Z,100.00
2023-05-11T04:45:52.891Z,100.00
2023-05-11T04:48:21.167Z,100.00
2023-05-11T04:50:49.329Z,100.00
2023-05-11T04:53:17.279Z,100.00
2023-05-11T04:55:46.579Z,100.00
2023-05-11T04:58:14.565Z,100.00
2023-05-11T05:00:42.527Z,100.00
2023-05-11T05:03:10.542Z,100.00
2023-05-11T05:05:38.514Z,98.43
2023-05-11T05:08:07.406Z,97.49
2023-05-11T05:10:35.401Z,94.92
2023-05-11T05:13:04.687Z,92.02
2023-05-11T05:15:32.654Z,93.18
2023-05-11T05:18:00.625Z,90.88
2023-05-11T05:20:28.699Z,90.22
2023-05-11T05:22:56.671Z,89.41
2023-05-11T05:25:24.757Z,89.08
2023-05-11T05:27:52.643Z,90.12
2023-05-11T05:30:22.003Z,90.49
2023-05-11T05:32:49.967Z,88.90
2023-05-11T05:35:17.931Z,84.59
2023-05-11T05:37:45.928Z,84.94
2023-05-11T05:40:14.133Z,86.73
2023-05-11T05:42:42.076Z,82.48
2023-05-11T05:45:13.866Z,82.53
2023-05-11T05:47:44.046Z,80.18
2023-05-11T05:50:12.793Z,82.42
2023-05-11T05:52:40.716Z,82.04
2023-05-11T05:55:09.274Z,81.24
2023-05-11T05:57:37.169Z,80.27
2023-05-11T06:00:05.770Z,77.64
2023-05-11T06:02:33.766Z,77.61
2023-05-11T06:05:03.162Z,76.94
2023-05-11T06:07:31.166Z,76.48
2023-05-11T06:09:59.069Z,74.89
2023-05-11T06:12:27.110Z,73.57
2023-05-11T06:14:55.066Z,71.85
2023-05-11T06:17:23.156Z,73.29
2023-05-11T06:19:51.215Z,70.58
2023-05-11T06:22:20.567Z,70.58
2023-05-11T06:24:48.528Z,71.33
2023-05-11T06:27:18.228Z,71.52
2023-05-11T06:29:47.025Z,70.16
2023-05-11T06:32:14.906Z,70.59
2023-05-11T06:34:42.804Z,67.01
2023-05-11T06:37:10.732Z,68.78
2023-05-11T06:39:40.012Z,68.88
2023-05-11T06:42:08.206Z,64.65
2023-05-11T06:44:36.280Z,66.39
2023-05-11T06:47:04.236Z,64.62
2023-05-11T06:49:32.212Z,64.83
2023-05-11T06:52:00.116Z,62.72
2023-05-11T06:54:28.078Z,63.19
2023-05-11T06:56:57.342Z,64.06
2023-05-11T06:59:25.254Z,58.03
2023-05-11T07:01:53.149Z,56.59
2023-05-11T07:04:21.096Z,58.93
2023-05-11T07:06:49.109Z,57.59
2023-05-11T07:09:17.077Z,60.17
2023-05-11T07:11:45.077Z,57.19
2023-05-11T07:14:14.463Z,57.76
2023-05-11T07:16:43.275Z,56.53
2023-05-11T07:19:11.809Z,53.44
2023-05-11T07:21:39.894Z,53.67
2023-05-11T07:24:08.153Z,54.13
2023-05-11T07:26:36.151Z,52.77
2023-05-11T07:29:04.178Z,54.97
2023-05-11T07:31:33.996Z,56.09
2023-05-11T07:34:01.987Z,53.77
2023-05-11T07:36:30.086Z,54.67
2023-05-11T07:38:59.611Z,51.49
2023-05-11T07:41:27.859Z,53.33
2023-05-11T07:43:56.145Z,53.02
2023-05-11T07:46:24.207Z,51.56
2023-05-11T07:49:03.416Z,49.71
2023-05-11T07:51:35.948Z,48.44
2023-05-11T07:54:04.020Z,50.85
2023-05-11T07:56:32.060Z,49.40
2023-05-11T07:59:00.110Z,49.30
2023-05-11T08:01:28.132Z,49.19
2023-05-11T08:03:57.519Z,48.41
2023-05-11T08:06:25.546Z,47.76
2023-05-11T08:08:53.543Z,50.34
2023-05-11T08:11:21.771Z,48.71
2023-05-11T08:13:49.779Z,47.08
2023-05-11T08:16:18.302Z,46.36
2023-05-11T08:18:46.493Z,45.63
2023-05-11T08:21:16.163Z,45.84
2023-05-11T08:23:45.267Z,44.74
2023-05-11T08:26:13.397Z,45.13
2023-05-11T08:28:41.389Z,44.89
2023-05-11T08:31:09.382Z,45.38
2023-05-11T08:33:38.842Z,44.95
2023-05-11T08:36:08.932Z,47.47
2023-05-11T08:38:38.355Z,43.86
2023-05-11T08:41:07.829Z,44.22
2023-05-11T08:43:36.727Z,42.65
2023-05-11T08:46:07.479Z,42.85
2023-05-11T08:48:36.315Z,44.48
2023-05-11T08:51:04.663Z,43.53
2023-05-11T08:53:32.802Z,42.55
2023-05-11T08:56:05.696Z,43.40
2023-05-11T08:58:37.405Z,44.84
2023-05-11T09:01:06.732Z,42.53
2023-05-11T09:03:36.774Z,40.89
2023-05-11T09:06:07.454Z,41.15
2023-05-11T09:08:37.220Z,41.78
2023-05-11T09:11:06.877Z,42.22
2023-05-11T09:13:35.037Z,40.84
2023-05-11T09:16:02.978Z,44.12
2023-05-11T09:18:31.054Z,41.17
2023-05-11T09:20:59.027Z,42.63
2023-05-11T09:23:27.715Z,43.12
2023-05-11T09:25:56.060Z,44.78
2023-05-11T09:28:26.982Z,44.91
2023-05-11T09:30:55.488Z,44.50
2023-05-11T09:33:24.828Z,43.24
2023-05-11T09:35:54.086Z,41.65
2023-05-11T09:38:23.254Z,42.58
2023-05-11T09:40:53.109Z,42.04
2023-05-11T09:43:22.801Z,41.91
2023-05-11T09:45:53.355Z,39.92
2023-05-11T09:48:29.561Z,39.69
2023-05-11T09:51:02.670Z,39.16
2023-05-11T09:53:43.329Z,40.34
2023-05-11T09:56:12.139Z,40.54
2023-05-11T09:58:48.509Z,40.86
2023-05-11T10:01:19.762Z,41.16
2023-05-11T10:03:49.729Z,40.93
2023-05-11T10:06:20.023Z,42.75
2023-05-11T10:08:48.820Z,41.71
2023-05-11T10:11:16.837Z,42.68
2023-05-11T10:13:45.897Z,42.78
2023-05-11T10:16:16.400Z,41.61
2023-05-11T10:18:45.954Z,41.92
2023-05-11T10:21:16.803Z,42.34
2023-05-11T10:23:44.912Z,41.98
2023-05-11T10:26:14.187Z,42.78
2023-05-11T10:28:42.635Z,41.98
2023-05-11T10:31:11.250Z,40.88
2023-05-11T10:33:39.777Z,42.81
2023-05-11T10:36:10.285Z,40.22
2023-05-11T10:38:38.345Z,40.61
2023-05-11T10:41:17.921Z,40.02
2023-05-11T10:44:04.616Z,40.32
2023-05-11T10:46:50.453Z,40.96
2023-05-11T10:49:44.954Z,38.79
2023-05-11T10:52:38.228Z,38.89
2023-05-11T10:55:14.650Z,41.20
2023-05-11T10:57:58.450Z,40.12
2023-05-11T11:01:16.688Z,39.45
2023-05-11T11:03:57.331Z,41.33
2023-05-11T11:06:26.057Z,39.69
2023-05-11T11:09:00.055Z,39.78
2023-05-11T11:11:32.910Z,39.80
2023-05-11T11:14:03.866Z,39.93
2023-05-11T11:16:31.889Z,37.39
2023-05-11T11:19:37.236Z,39.20
2023-05-11T11:22:05.710Z,38.71
2023-05-11T11:24:48.060Z,37.42
2023-05-11T11:27:16.059Z,38.86
2023-05-11T11:30:17.438Z,38.70
2023-05-11T11:32:46.445Z,37.22
2023-05-11T11:35:49.848Z,37.51
2023-05-11T11:38:19.427Z,39.30
2023-05-11T11:40:52.806Z,36.41
2023-05-11T11:43:22.055Z,35.79
2023-05-11T11:45:54.830Z,35.75
2023-05-11T11:48:24.788Z,36.04
2023-05-11T11:51:04.272Z,36.80
2023-05-11T11:54:02.118Z,34.46
2023-05-11T11:56:43.722Z,35.94
2023-05-11T11:59:16.203Z,36.12
2023-05-11T12:01:46.006Z,35.73
2023-05-11T12:04:46.179Z,37.08
2023-05-11T12:07:16.371Z,34.79
2023-05-11T12:09:47.292Z,35.20
2023-05-11T12:12:18.889Z,37.41
2023-05-11T12:14:49.467Z,36.38
2023-05-11T12:17:25.794Z,36.17
2023-05-11T12:19:53.781Z,35.55
2023-05-11T12:22:25.853Z,36.56
2023-05-11T12:24:59.544Z,35.19
2023-05-11T12:27:29.670Z,35.36
2023-05-11T12:29:58.700Z,37.20
2023-05-11T12:32:28.544Z,36.56
2023-05-11T12:35:01.420Z,36.16
2023-05-11T12:37:30.036Z,34.66
2023-05-11T12:39:58.622Z,35.49
2023-05-11T12:42:27.786Z,35.56
2023-05-11T12:44:57.433Z,35.80
2023-05-11T12:47:25.589Z,35.14
2023-05-11T12:49:53.669Z,35.47
2023-05-11T12:52:24.988Z,36.90
2023-05-11T12:54:53.936Z,36.73
2023-05-11T12:57:26.515Z,38.55
2023-05-11T13:00:12.831Z,35.67
2023-05-11T13:02:52.100Z,37.26
2023-05-11T13:05:24.954Z,36.57
2023-05-11T13:07:58.929Z,37.28
2023-05-11T13:10:27.100Z,36.74
2023-05-11T13:12:56.233Z,35.12
2023-05-11T13:15:28.664Z,35.70
2023-05-11T13:17:59.282Z,37.00
2023-05-11T13:20:29.599Z,36.47
2023-05-11T13:23:08.675Z,38.00
2023-05-11T13:25:53.288Z,37.01
2023-05-11T13:28:23.491Z,36.41
2023-05-11T13:30:59.603Z,35.56
2023-05-11T13:33:27.765Z,35.67
2023-05-11T13:35:56.011Z,35.51
2023-05-11T13:38:23.947Z,37.80
2023-05-11T13:40:51.883Z,37.94
2023-05-11T13:43:19.823Z,36.31
2023-05-11T13:45:47.750Z,37.97
2023-05-11T13:48:17.743Z,37.12
2023-05-11T13:50:46.032Z,37.29
2023-05-11T13:53:14.059Z,37.45
2023-05-11T13:55:42.634Z,36.58
2023-05-11T13:58:10.660Z,36.79
2023-05-11T14:00:40.137Z,37.73
2023-05-11T14:03:08.280Z,37.83
2023-05-11T14:05:39.344Z,36.01
2023-05-11T14:08:07.401Z,37.45
2023-05-11T14:10:35.313Z,37.04
2023-05-11T14:13:03.205Z,36.49
2023-05-11T14:15:31.158Z,37.05
2023-05-11T14:17:59.378Z,36.86
2023-05-11T14:20:27.380Z,38.26
2023-05-11T14:22:57.204Z,38.55
2023-05-11T14:25:25.578Z,38.06
2023-05-11T14:27:55.551Z,39.06
2023-05-11T14:30:24.120Z,38.40
2023-05-11T14:32:53.422Z,38.58
2023-05-11T14:35:22.360Z,39.09
2023-05-11T14:37:50.240Z,38.82
2023-05-11T14:40:19.528Z,39.19
2023-05-11T14:42:47.464Z,39.78
2023-05-11T14:45:15.463Z,40.12
2023-05-11T14:47:43.531Z,40.77
2023-05-11T14:50:11.953Z,39.00
2023-05-11T14:52:39.871Z,39.03
2023-05-11T14:55:08.807Z,38.28
2023-05-11T14:57:38.140Z,38.50
2023-05-11T15:00:07.302Z,38.04
2023-05-11T15:02:35.324Z,39.68
2023-05-11T15:05:03.278Z,40.67
2023-05-11T15:07:31.156Z,39.54
2023-05-11T15:10:01.665Z,39.88
2023-05-11T15:12:31.187Z,40.70
2023-05-11T15:15:00.768Z,40.88
2023-05-11T15:17:28.743Z,39.62
2023-05-11T15:19:56.729Z,40.71
2023-05-11T15:22:24.616Z,40.01
2023-05-11T15:24:52.535Z,40.51
2023-05-11T15:27:20.420Z,41.79
2023-05-11T15:29:48.432Z,41.44
2023-05-11T15:32:18.168Z,40.63
2023-05-11T15:34:58.622Z,41.11
2023-05-11T15:37:27.558Z,41.87
2023-05-11T15:39:55.513Z,41.09
2023-05-11T15:42:23.419Z,40.16
2023-05-11T15:44:51.344Z,40.73
2023-05-11T15:47:20.693Z,40.61
2023-05-11T15:49:48.682Z,40.77
2023-05-11T15:52:16.660Z,40.56
2023-05-11T15:54:44.605Z,41.08
2023-05-11T15:57:12.530Z,40.48
2023-05-11T15:59:40.426Z,41.13
2023-05-11T16:02:08.544Z,42.29
2023-05-11T16:04:37.811Z,41.72
2023-05-11T16:07:06.005Z,41.62
2023-05-11T16:09:33.927Z,41.76
2023-05-11T16:12:02.089Z,41.80
2023-05-11T16:14:29.981Z,41.93
2023-05-11T16:16:57.974Z,41.26
2023-05-11T16:19:27.794Z,41.51
2023-05-11T16:21:57.178Z,41.44
2023-05-11T16:24:25.136Z,42.56
2023-05-11T16:26:53.023Z,42.58
2023-05-11T16:29:21.020Z,43.60
2023-05-11T16:31:49.090Z,42.77
2023-05-11T16:34:17.152Z,42.50
2023-05-11T16:36:45.146Z,42.42
2023-05-11T16:39:14.618Z,41.61
2023-05-11T16:41:42.472Z,42.79
2023-05-11T16:44:10.428Z,43.08
2023-05-11T16:46:38.912Z,42.84
2023-05-11T16:49:07.178Z,42.18
2023-05-11T16:51:35.126Z,43.41
2023-05-11T16:54:03.236Z,42.84
2023-05-11T16:56:32.574Z,43.48
2023-05-11T16:59:00.494Z,44.48
2023-05-11T17:01:28.552Z,44.56
2023-05-11T17:03:56.596Z,44.56
2023-05-11T17:06:26.724Z,45.20
2023-05-11T17:08:54.833Z,46.02
2023-05-11T17:11:22.788Z,46.54
2023-05-11T17:13:52.116Z,47.42
2023-05-11T17:16:20.140Z,48.03
2023-05-11T17:18:48.194Z,49.04
2023-05-11T17:21:16.897Z,48.33
2023-05-11T17:23:45.119Z,48.84
2023-05-11T17:26:13.904Z,48.84
2023-05-11T17:28:41.968Z,49.44
2023-05-11T17:31:12.853Z,50.74
2023-05-11T17:33:41.926Z,49.97
2023-05-11T17:36:11.777Z,49.78
2023-05-11T17:38:39.682Z,50.01
2023-05-11T17:41:08.181Z,51.29
2023-05-11T17:43:38.164Z,51.91
2023-05-11T17:46:06.792Z,51.51
2023-05-11T17:48:36.346Z,53.63
2023-05-11T17:51:04.293Z,53.77
2023-05-11T17:53:32.564Z,54.26
2023-05-11T17:56:01.118Z,54.68
2023-05-11T17:58:29.014Z,55.63
2023-05-11T18:00:56.913Z,55.07
2023-05-11T18:03:25.123Z,54.97
2023-05-11T18:05:55.817Z,55.13
2023-05-11T18:08:24.120Z,55.81
2023-05-11T18:10:52.109Z,54.39
2023-05-11T18:13:20.346Z,57.09
2023-05-11T18:15:48.823Z,55.34
2023-05-11T18:18:17.933Z,55.17
2023-05-11T18:20:46.533Z,55.40
2023-05-11T18:23:16.034Z,56.10
2023-05-11T18:25:44.247Z,55.77
2023-05-11T18:28:12.255Z,56.98
2023-05-11T18:30:40.298Z,56.37
2023-05-11T18:33:08.426Z,57.08
2023-05-11T18:35:38.989Z,56.64
2023-05-11T18:38:07.533Z,56.67
2023-05-11T18:40:37.866Z,56.96
2023-05-11T18:43:06.022Z,57.18
2023-05-11T18:45:35.067Z,56.84
2023-05-11T18:48:03.821Z,56.99
2023-05-11T18:50:31.886Z,58.51
2023-05-11T18:53:00.039Z,58.97
2023-05-11T18:55:30.978Z,59.60
2023-05-11T18:58:01.621Z,60.41
2023-05-11T19:00:31.239Z,60.67
2023-05-11T19:02:59.254Z,60.94
2023-05-11T19:05:27.276Z,61.23
2023-05-11T19:07:55.177Z,60.52
2023-05-11T19:10:24.513Z,61.65
2023-05-11T19:12:52.560Z,61.98
2023-05-11T19:15:21.930Z,63.35
2023-05-11T19:17:49.872Z,64.09
2023-05-11T19:20:18.157Z,64.37
2023-05-11T19:22:46.201Z,63.85
2023-05-11T19:25:14.158Z,63.34
2023-05-11T19:27:42.058Z,63.65
2023-05-11T19:30:10.797Z,61.82
2023-05-11T19:32:41.746Z,62.32
2023-05-11T19:35:11.756Z,63.42
2023-05-11T19:37:39.657Z,63.77
2023-05-11T19:40:37.980Z,63.84
2023-05-11T19:42:56.635Z,63.52
2023-05-11T19:45:24.832Z,63.35
2023-05-11T19:47:54.177Z,63.54
2023-05-11T19:50:24.441Z,63.85
2023-05-11T19:52:54.485Z,63.53
2023-05-11T19:55:22.404Z,64.68
2023-05-11T19:57:50.419Z,64.95
2023-05-11T20:00:20.466Z,64.52
2023-05-11T20:02:48.811Z,64.89
2023-05-11T20:05:18.340Z,64.07
2023-05-11T20:07:46.496Z,64.85
2023-05-11T20:10:14.412Z,65.34
2023-05-11T20:12:42.370Z,65.33
2023-05-11T20:15:11.545Z,66.58
2023-05-11T20:17:39.765Z,65.28
2023-05-11T20:20:09.417Z,65.04
2023-05-11T20:22:39.191Z,65.32
2023-05-11T20:25:17.078Z,65.34
2023-05-11T20:27:46.519Z,64.57
2023-05-11T20:30:15.063Z,65.14
2023-05-11T20:34:06.911Z,66.15
2023-05-11T20:35:31.150Z,65.95
2023-05-11T20:38:00.478Z,66.05
2023-05-11T20:40:28.460Z,65.87
2023-05-11T20:42:56.350Z,67.05
2023-05-11T20:45:24.273Z,67.34
2023-05-11T20:47:52.400Z,67.10
2023-05-11T20:50:20.706Z,66.49
2023-05-11T20:52:48.780Z,67.66
2023-05-11T20:55:18.446Z,67.73
2023-05-11T20:57:46.634Z,68.02
2023-05-11T21:00:16.123Z,67.58
2023-05-11T21:02:44.165Z,69.15
2023-05-11T21:05:12.131Z,68.15
2023-05-11T21:07:40.211Z,69.58
2023-05-11T21:10:08.890Z,68.70
2023-05-11T21:12:38.186Z,70.82
2023-05-11T21:15:07.258Z,70.56
2023-05-11T21:17:35.808Z,71.42
2023-05-11T21:20:05.133Z,73.28
2023-05-11T21:22:33.528Z,73.53
2023-05-11T21:25:01.564Z,73.27
2023-05-11T21:27:29.422Z,72.91
2023-05-11T21:29:58.745Z,73.32
2023-05-11T21:32:26.700Z,74.04
2023-05-11T21:34:54.594Z,75.93
2023-05-11T21:37:22.519Z,74.90
2023-05-11T21:39:50.553Z,77.68
2023-05-11T21:42:18.559Z,77.19
2023-05-11T21:44:46.503Z,75.60
2023-05-11T21:47:16.022Z,75.90
2023-05-11T21:49:43.927Z,76.49
2023-05-11T21:52:12.295Z,77.31
2023-05-11T21:54:40.200Z,78.73
2023-05-11T21:57:08.098Z,80.39
2023-05-11T21:59:36.211Z,79.60
2023-05-11T22:02:04.696Z,80.01
2023-05-11T22:04:34.583Z,81.34
2023-05-11T22:07:02.460Z,83.01
2023-05-11T22:09:31.623Z,82.92
2023-05-11T22:11:59.698Z,83.22
2023-05-11T22:14:27.660Z,83.30
2023-05-11T22:16:55.551Z,84.00
2023-05-11T22:19:23.471Z,83.71
2023-05-11T22:21:53.236Z,84.64
2023-05-11T22:24:21.658Z,84.10
2023-05-11T22:26:49.916Z,84.80
2023-05-11T22:29:17.901Z,85.29
2023-05-11T22:31:46.453Z,87.47
2023-05-11T22:34:14.444Z,86.91
2023-05-11T22:36:42.326Z,87.47
2023-05-11T22:39:12.365Z,87.41
2023-05-11T22:41:40.324Z,88.32
2023-05-11T22:44:09.432Z,87.98
2023-05-11T22:46:37.404Z,87.64
2023-05-11T22:49:05.290Z,89.27
2023-05-11T22:51:33.184Z,89.66
2023-05-11T22:54:01.085Z,90.73
2023-05-11T22:56:30.648Z,90.09
2023-05-11T22:58:59.933Z,90.25
2023-05-11T23:01:28.062Z,90.18
2023-05-11T23:03:56.029Z,90.25
2023-05-11T23:06:23.932Z,91.42
2023-05-11T23:08:51.955Z,90.70
2023-05-11T23:11:20.000Z,90.38
2023-05-11T23:13:49.264Z,90.76
2023-05-11T23:16:17.782Z,91.98
2023-05-11T23:18:46.001Z,90.14
2023-05-11T23:21:13.971Z,89.16
2023-05-11T23:23:42.975Z,90.57
2023-05-11T23:26:10.982Z,91.94
2023-05-11T23:28:38.852Z,94.35
2023-05-11T23:31:08.181Z,92.19
2023-05-11T23:33:36.084Z,91.09
2023-05-11T23:36:04.006Z,91.27
2023-05-11T23:38:31.894Z,90.89
2023-05-11T23:40:59.889Z,90.58
2023-05-11T23:43:28.326Z,90.01
2023-05-11T23:45:57.625Z,89.92
2023-05-11T23:48:26.966Z,89.49
2023-05-11T23:50:54.849Z,89.75
2023-05-11T23:53:22.905Z,89.28
2023-05-11T23:55:50.923Z,90.01
2023-05-11T23:58:18.813Z,90.99
